createdAt,value
2022-10-12T00:01:48.980Z,17.75
2022-10-12T00:04:16.068Z,17.75
2022-10-12T00:06:43.081Z,17.73
2022-10-12T00:09:10.118Z,19.58
2022-10-12T00:11:37.192Z,19.38
2022-10-12T00:14:04.195Z,18.35
2022-10-12T00:16:31.793Z,20.30
2022-10-12T00:18:59.161Z,18.95
2022-10-12T00:21:26.932Z,21.05
2022-10-12T00:23:56.616Z,21.42
2022-10-12T00:26:24.257Z,22.30
2022-10-12T00:28:56.475Z,21.95
2022-10-12T00:31:23.588Z,21.85
2022-10-12T00:33:50.631Z,23.63
2022-10-12T00:36:22.034Z,20.77
2022-10-12T00:38:49.705Z,21.98
2022-10-12T00:41:17.947Z,21.63
2022-10-12T00:43:45.879Z,24.00
2022-10-12T00:46:21.109Z,21.25
2022-10-12T00:48:49.998Z,21.73
2022-10-12T00:51:19.204Z,23.25
2022-10-12T00:53:49.185Z,21.00
2022-10-12T00:56:18.768Z,21.20
2022-10-12T00:58:46.694Z,20.88
2022-10-12T01:01:13.810Z,23.83
2022-10-12T01:03:41.628Z,21.20
2022-10-12T01:06:08.719Z,20.58
2022-10-12T01:08:37.340Z,20.38
2022-10-12T01:11:04.725Z,21.33
2022-10-12T01:13:32.298Z,19.92
2022-10-12T01:16:02.120Z,21.13
2022-10-12T01:18:38.195Z,19.77
2022-10-12T01:21:11.631Z,20.05
2022-10-12T01:23:44.544Z,21.65
2022-10-12T01:26:25.620Z,20.48
2022-10-12T01:29:12.874Z,21.25
2022-10-12T01:31:49.181Z,20.38
2022-10-12T01:34:22.791Z,21.27
2022-10-12T01:36:52.601Z,20.25
2022-10-12T01:39:26.195Z,19.15
2022-10-12T01:41:58.173Z,20.83
2022-10-12T01:44:26.322Z,20.65
2022-10-12T01:46:57.079Z,20.02
2022-10-12T01:49:29.256Z,20.65
2022-10-12T01:52:14.901Z,21.02
2022-10-12T01:54:52.366Z,21.08
2022-10-12T01:57:36.204Z,20.65
2022-10-12T02:00:21.662Z,19.80
2022-10-12T02:03:07.268Z,21.85
2022-10-12T02:05:37.307Z,22.02
2022-10-12T02:08:12.267Z,20.35
2022-10-12T02:10:41.512Z,20.27
2022-10-12T02:13:10.647Z,21.23
2022-10-12T02:15:38.981Z,22.42
2022-10-12T02:18:06.294Z,21.30
2022-10-12T02:20:34.006Z,22.05
2022-10-12T02:23:02.424Z,21.85
2022-10-12T02:25:29.818Z,23.02
2022-10-12T02:28:00.676Z,24.02
2022-10-12T02:30:28.371Z,24.95
2022-10-12T02:33:08.125Z,25.75
2022-10-12T02:35:41.680Z,21.92
2022-10-12T02:38:13.439Z,19.23
2022-10-12T02:41:02.259Z,22.23
2022-10-12T02:43:35.504Z,19.27
2022-10-12T02:46:03.154Z,16.23
2022-10-12T02:48:30.633Z,21.92
2022-10-12T02:50:58.423Z,21.27
2022-10-12T02:53:27.075Z,22.55
2022-10-12T02:55:56.364Z,23.48
2022-10-12T02:58:23.367Z,20.58
2022-10-12T03:00:50.383Z,21.98
2022-10-12T03:03:17.662Z,22.20
2022-10-12T03:05:44.652Z,21.73
2022-10-12T03:08:11.695Z,20.70
2022-10-12T03:10:38.717Z,20.42
2022-10-12T03:13:05.735Z,21.33
2022-10-12T03:15:32.747Z,22.33
2022-10-12T03:17:59.742Z,20.73
2022-10-12T03:20:26.729Z,20.75
2022-10-12T03:22:53.724Z,22.02
2022-10-12T03:25:20.950Z,23.25
2022-10-12T03:27:48.035Z,23.95
2022-10-12T03:30:15.091Z,22.98
2022-10-12T03:32:42.119Z,23.23
2022-10-12T03:35:09.401Z,22.48
2022-10-12T03:37:36.714Z,23.85
2022-10-12T03:40:04.486Z,23.55
2022-10-12T03:42:31.471Z,24.10
2022-10-12T03:44:58.452Z,26.33
2022-10-12T03:47:25.461Z,25.63
2022-10-12T03:49:52.519Z,25.13
2022-10-12T03:52:19.512Z,25.98
2022-10-12T03:54:46.484Z,26.05
2022-10-12T03:57:13.483Z,27.50
2022-10-12T03:59:40.456Z,27.45
2022-10-12T04:02:07.447Z,28.40
2022-10-12T04:04:34.494Z,28.45
2022-10-12T04:07:01.513Z,29.02
2022-10-12T04:09:28.700Z,30.95
2022-10-12T04:11:55.838Z,27.92
2022-10-12T04:14:22.827Z,28.48
2022-10-12T04:16:49.904Z,27.63
2022-10-12T04:19:16.896Z,29.83
2022-10-12T04:21:43.897Z,30.30
2022-10-12T04:24:10.871Z,29.00
2022-10-12T04:26:37.988Z,29.30
2022-10-12T04:29:05.333Z,30.73
2022-10-12T04:31:32.326Z,28.13
2022-10-12T04:33:59.392Z,31.98
2022-10-12T04:36:26.753Z,31.80
2022-10-12T04:38:59.865Z,31.23
2022-10-12T04:41:27.804Z,29.25
2022-10-12T04:43:54.823Z,29.45
2022-10-12T04:46:21.945Z,28.85
2022-10-12T04:48:48.976Z,32.10
2022-10-12T04:51:15.982Z,30.63
2022-10-12T04:53:42.977Z,29.77
2022-10-12T04:56:10.113Z,32.55
2022-10-12T04:58:37.391Z,29.40
2022-10-12T05:01:04.644Z,30.02
2022-10-12T05:03:31.812Z,29.77
2022-10-12T05:05:58.867Z,32.67
2022-10-12T05:08:25.890Z,32.08
2022-10-12T05:10:53.136Z,32.22
2022-10-12T05:13:20.207Z,33.10
2022-10-12T05:15:47.235Z,28.77
2022-10-12T05:18:14.278Z,30.95
2022-10-12T05:20:41.290Z,40.58
2022-10-12T05:23:08.310Z,35.45
2022-10-12T05:25:36.463Z,32.90
2022-10-12T05:28:03.564Z,33.92
2022-10-12T05:30:30.673Z,33.35
2022-10-12T05:32:57.660Z,31.63
2022-10-12T05:35:24.669Z,30.48
2022-10-12T05:37:51.747Z,30.88
2022-10-12T05:40:18.855Z,33.08
2022-10-12T05:42:45.921Z,31.92
2022-10-12T05:45:14.006Z,31.95
2022-10-12T05:47:41.507Z,30.27
2022-10-12T05:50:08.881Z,31.05
2022-10-12T05:52:36.330Z,31.45
2022-10-12T05:55:03.727Z,30.65
2022-10-12T05:57:30.807Z,29.30
2022-10-12T05:59:58.083Z,29.00
2022-10-12T06:02:25.151Z,28.58
2022-10-12T06:04:52.210Z,31.27
2022-10-12T06:07:19.175Z,30.80
2022-10-12T06:09:47.552Z,30.92
2022-10-12T06:12:15.899Z,30.63
2022-10-12T06:14:43.966Z,31.35
2022-10-12T06:17:11.005Z,33.10
2022-10-12T06:19:38.015Z,32.55
2022-10-12T06:22:05.033Z,30.90
2022-10-12T06:24:32.112Z,30.52
2022-10-12T06:26:59.116Z,31.70
2022-10-12T06:29:26.523Z,29.55
2022-10-12T06:31:54.231Z,33.15
2022-10-12T06:34:21.436Z,29.65
2022-10-12T06:36:49.295Z,29.25
2022-10-12T06:39:16.445Z,34.20
2022-10-12T06:41:43.531Z,30.05
2022-10-12T06:44:10.547Z,30.33
2022-10-12T06:46:37.573Z,31.88
2022-10-12T06:49:04.626Z,30.83
2022-10-12T06:51:31.739Z,30.77
2022-10-12T06:53:58.776Z,32.92
2022-10-12T06:56:25.811Z,30.70
2022-10-12T06:58:56.158Z,32.50
2022-10-12T07:01:23.478Z,31.88
2022-10-12T07:03:50.585Z,31.15
2022-10-12T07:06:17.701Z,28.90
2022-10-12T07:08:44.772Z,30.75
2022-10-12T07:11:12.436Z,29.73
2022-10-12T07:13:39.827Z,30.10
2022-10-12T07:16:07.456Z,29.48
2022-10-12T07:18:34.561Z,30.02
2022-10-12T07:21:02.668Z,31.60
2022-10-12T07:23:33.354Z,27.65
2022-10-12T07:26:00.433Z,27.25
2022-10-12T07:28:27.676Z,28.88
2022-10-12T07:30:54.808Z,24.08
2022-10-12T07:33:21.871Z,26.90
2022-10-12T07:36:12.776Z,25.33
2022-10-12T07:38:44.675Z,26.60
2022-10-12T07:41:12.030Z,25.40
2022-10-12T07:43:39.181Z,24.40
2022-10-12T07:46:06.324Z,23.95
2022-10-12T07:48:34.077Z,23.50
2022-10-12T07:51:07.773Z,24.02
2022-10-12T07:53:35.212Z,25.85
2022-10-12T07:56:02.570Z,25.45
2022-10-12T07:58:29.705Z,27.08
2022-10-12T08:00:56.708Z,23.88
2022-10-12T08:03:23.909Z,24.27
2022-10-12T08:05:50.965Z,26.27
2022-10-12T08:08:17.967Z,26.27
2022-10-12T08:10:44.968Z,23.90
2022-10-12T08:13:11.973Z,25.48
2022-10-12T08:15:38.947Z,26.95
2022-10-12T08:18:06.044Z,25.75
2022-10-12T08:20:33.077Z,26.60
2022-10-12T08:23:00.128Z,26.42
2022-10-12T08:25:27.212Z,26.20
2022-10-12T08:27:54.288Z,26.20
2022-10-12T08:30:26.726Z,23.65
2022-10-12T08:32:54.122Z,26.17
2022-10-12T08:35:21.123Z,25.55
2022-10-12T08:37:48.111Z,23.52
2022-10-12T08:40:19.630Z,24.92
2022-10-12T08:42:58.635Z,24.55
2022-10-12T08:45:30.601Z,21.45
2022-10-12T08:48:03.171Z,22.50
2022-10-12T08:50:41.408Z,24.20
2022-10-12T08:53:19.104Z,22.75
2022-10-12T08:55:47.015Z,22.40
2022-10-12T08:58:18.497Z,22.48
2022-10-12T11:56:27.071Z,14.40
2022-10-12T11:59:01.051Z,15.88
2022-10-12T12:01:39.897Z,15.20
2022-10-12T12:04:42.658Z,14.38
2022-10-12T12:07:29.462Z,15.07
2022-10-12T12:09:56.082Z,14.98
2022-10-12T12:12:25.645Z,14.32
2022-10-12T12:14:55.047Z,13.77
2022-10-12T12:17:21.909Z,13.40
2022-10-12T12:19:52.214Z,12.80
2022-10-12T12:22:29.033Z,13.98
2022-10-12T12:25:23.796Z,13.13
2022-10-12T12:27:53.758Z,11.55
2022-10-12T12:30:24.321Z,13.60
2022-10-12T12:32:57.713Z,13.52
2022-10-12T12:35:24.272Z,12.77
2022-10-12T12:38:15.254Z,13.88
2022-10-12T12:40:53.793Z,11.43
2022-10-12T12:43:29.422Z,12.30
2022-10-12T12:45:57.478Z,11.70
2022-10-12T12:48:39.470Z,11.10
2022-10-12T12:51:12.377Z,12.15
2022-10-12T12:53:59.028Z,12.43
2022-10-12T12:57:01.505Z,11.88
2022-10-12T12:59:38.403Z,11.80
2022-10-12T13:02:23.210Z,12.13
2022-10-12T13:05:04.809Z,11.90
2022-10-12T13:08:04.137Z,12.15
2022-10-12T13:10:50.562Z,10.98
2022-10-12T13:13:39.198Z,11.23
2022-10-12T13:16:36.641Z,13.13
2022-10-12T13:19:11.685Z,11.30
2022-10-12T13:21:45.740Z,11.55
2022-10-12T13:26:59.913Z,10.73
2022-10-12T13:29:39.329Z,12.82
2022-10-12T13:32:19.395Z,11.63
2022-10-12T13:34:49.792Z,11.07
2022-10-12T13:37:16.883Z,11.98
2022-10-12T13:39:46.940Z,10.98
2022-10-12T13:42:23.325Z,11.98
2022-10-12T13:44:50.303Z,13.02
2022-10-12T13:47:28.907Z,12.18
2022-10-12T13:49:56.599Z,9.80
2022-10-12T13:52:32.729Z,12.13
2022-10-12T13:55:00.865Z,12.88
2022-10-12T13:57:41.193Z,11.80
2022-10-12T14:00:16.560Z,10.43
2022-10-12T14:02:57.806Z,10.80
2022-10-12T14:05:26.295Z,12.00
2022-10-12T14:07:57.092Z,11.30
2022-10-12T14:10:29.533Z,13.32
2022-10-12T14:12:57.142Z,11.95
2022-10-12T14:15:27.706Z,10.68
2022-10-12T14:17:55.177Z,11.18
2022-10-12T14:20:33.081Z,11.13
2022-10-12T14:23:02.054Z,12.07
2022-10-12T14:25:33.101Z,11.48
2022-10-12T14:28:06.616Z,11.30
2022-10-12T14:30:36.667Z,12.50
2022-10-12T14:33:30.126Z,11.70
2022-10-12T14:36:16.665Z,11.68
2022-10-12T14:38:45.400Z,12.10
2022-10-12T14:41:31.570Z,11.15
2022-10-12T14:44:10.425Z,11.05
2022-10-12T14:46:39.088Z,11.20
2022-10-12T14:49:06.271Z,11.25
2022-10-12T14:51:33.997Z,12.48
2022-10-12T14:54:01.847Z,10.88
2022-10-12T14:56:28.947Z,12.20
2022-10-12T14:58:56.018Z,12.93
2022-10-12T15:01:23.605Z,11.35
2022-10-12T15:03:50.729Z,12.02
2022-10-12T15:06:17.804Z,12.38
2022-10-12T15:08:45.336Z,11.60
2022-10-12T15:11:13.249Z,11.70
2022-10-12T15:13:40.740Z,10.85
2022-10-12T15:16:34.262Z,11.60
2022-10-12T15:19:01.306Z,12.93
2022-10-12T15:21:28.362Z,13.30
2022-10-12T15:23:56.946Z,13.07
2022-10-12T15:26:24.079Z,13.35
2022-10-12T15:28:51.380Z,13.80
2022-10-12T15:31:19.160Z,14.80
2022-10-12T15:33:46.650Z,13.70
2022-10-12T15:36:13.794Z,13.45
2022-10-12T15:38:40.839Z,13.25
2022-10-12T15:41:15.229Z,14.05
2022-10-12T15:43:42.428Z,14.45
2022-10-12T15:46:12.767Z,14.90
2022-10-12T15:48:40.269Z,14.38
2022-10-12T15:51:09.826Z,15.88
2022-10-12T15:53:36.831Z,15.45
2022-10-12T15:56:07.636Z,15.63
2022-10-12T15:58:34.639Z,14.80
2022-10-12T16:01:01.739Z,14.30
2022-10-12T16:03:31.603Z,14.95
2022-10-12T16:05:58.784Z,14.60
2022-10-12T16:08:25.836Z,14.60
2022-10-12T16:10:53.004Z,14.02
2022-10-12T16:13:20.527Z,14.80
2022-10-12T16:15:47.656Z,14.18
2022-10-12T16:18:17.926Z,13.52
2022-10-12T16:20:47.635Z,15.07
2022-10-12T16:23:26.375Z,14.03
2022-10-12T16:25:53.559Z,14.23
2022-10-12T16:28:21.282Z,14.57
2022-10-12T16:30:49.575Z,13.70
2022-10-12T16:33:17.002Z,14.65
2022-10-12T16:35:44.008Z,15.30
2022-10-12T16:38:11.330Z,14.77
2022-10-12T16:40:42.271Z,14.73
2022-10-12T16:43:09.305Z,16.27
2022-10-12T16:45:36.314Z,14.90
2022-10-12T16:48:03.339Z,14.57
2022-10-12T16:50:30.410Z,14.48
2022-10-12T16:52:57.699Z,13.07
2022-10-12T16:55:24.739Z,15.52
2022-10-12T16:57:51.735Z,14.52
2022-10-12T17:00:19.484Z,14.90
2022-10-12T17:02:47.499Z,15.07
2022-10-12T17:05:14.531Z,17.75
2022-10-12T17:07:41.522Z,16.33
2022-10-12T17:10:08.947Z,14.98
2022-10-12T17:12:36.027Z,15.20
2022-10-12T17:15:03.043Z,14.00
2022-10-12T17:17:30.077Z,14.23
2022-10-12T17:19:57.113Z,13.15
2022-10-12T17:22:24.155Z,14.95
2022-10-12T17:24:51.187Z,16.02
2022-10-12T17:27:18.580Z,16.00
2022-10-12T17:29:46.025Z,15.20
2022-10-12T17:32:13.280Z,15.07
2022-10-12T17:34:41.583Z,14.95
2022-10-12T17:37:11.248Z,14.80
2022-10-12T17:39:40.243Z,15.45
2022-10-12T17:42:07.451Z,13.32
2022-10-12T17:44:34.535Z,12.57
2022-10-12T17:47:02.031Z,13.82
2022-10-12T17:49:29.195Z,14.52
2022-10-12T17:51:56.283Z,13.60
2022-10-12T17:54:26.130Z,14.23
2022-10-12T17:56:53.834Z,13.20
2022-10-12T17:59:21.091Z,15.07
2022-10-12T18:01:48.434Z,12.90
2022-10-12T18:04:15.629Z,13.63
2022-10-12T18:06:42.670Z,15.35
2022-10-12T18:09:10.120Z,14.77
2022-10-12T18:11:37.645Z,15.88
2022-10-12T18:14:04.793Z,13.30
2022-10-12T18:16:32.904Z,14.02
2022-10-12T18:19:01.095Z,13.10
2022-10-12T18:21:29.277Z,14.48
2022-10-12T18:23:56.669Z,14.15
2022-10-12T18:26:24.866Z,14.07
2022-10-12T18:28:53.102Z,14.02
2022-10-12T18:31:21.522Z,13.60
2022-10-12T18:33:48.740Z,12.93
2022-10-12T18:36:16.434Z,12.63
2022-10-12T18:38:43.568Z,14.32
2022-10-12T18:41:12.029Z,13.40
2022-10-12T18:43:39.356Z,12.95
2022-10-12T18:46:07.375Z,12.77
2022-10-12T18:48:35.434Z,13.15
2022-10-12T18:51:32.109Z,12.90
2022-10-12T18:54:00.035Z,14.63
2022-10-12T18:56:27.179Z,14.43
2022-10-12T18:58:54.327Z,13.43
2022-10-12T19:01:22.678Z,12.75
2022-10-12T19:03:50.957Z,13.15
2022-10-12T19:06:19.852Z,13.10
2022-10-12T19:08:48.014Z,12.55
2022-10-12T19:11:15.645Z,13.65
2022-10-12T19:13:42.721Z,12.35
2022-10-12T19:16:14.114Z,13.65
2022-10-12T19:18:41.554Z,13.02
2022-10-12T19:21:10.229Z,12.10
2022-10-12T19:23:37.344Z,12.93
2022-10-12T19:26:05.888Z,12.95
2022-10-12T19:28:33.312Z,13.55
2022-10-12T19:31:00.821Z,11.75
2022-10-12T19:33:29.172Z,13.65
2022-10-12T19:35:56.582Z,12.18
2022-10-12T19:38:23.978Z,13.65
2022-10-12T19:40:51.772Z,12.65
2022-10-12T19:43:18.998Z,12.63
2022-10-12T19:45:46.058Z,14.80
2022-10-12T19:48:13.170Z,14.07
2022-10-12T19:50:40.194Z,14.90
2022-10-12T19:53:07.357Z,14.10
2022-10-12T19:55:34.428Z,14.25
2022-10-12T19:58:02.184Z,14.52
2022-10-12T20:00:29.219Z,13.18
2022-10-12T20:02:56.313Z,14.68
2022-10-12T20:05:23.470Z,12.98
2022-10-12T20:07:50.584Z,13.07
2022-10-12T20:10:17.683Z,13.43
2022-10-12T20:12:44.669Z,13.27
2022-10-12T20:15:11.841Z,13.63
2022-10-12T20:17:39.188Z,13.05
2022-10-12T20:20:06.585Z,13.45
2022-10-12T20:22:33.708Z,13.90
2022-10-12T20:25:01.016Z,15.45
2022-10-12T20:27:29.064Z,12.65
2022-10-12T20:29:56.108Z,12.30
2022-10-12T20:32:23.161Z,14.80
2022-10-12T20:34:52.475Z,14.75
2022-10-12T20:37:21.440Z,13.57
2022-10-12T20:39:51.956Z,12.95
2022-10-12T20:42:21.917Z,15.23
2022-10-12T20:44:49.270Z,12.60
2022-10-12T20:47:17.212Z,13.95
2022-10-12T20:49:44.544Z,16.40
2022-10-12T20:52:11.831Z,14.75
2022-10-12T20:54:38.888Z,14.18
2022-10-12T20:57:06.105Z,15.75
2022-10-12T20:59:36.720Z,14.80
2022-10-12T21:02:03.885Z,14.90
2022-10-12T21:04:34.744Z,14.15
2022-10-12T21:07:04.551Z,12.82
2022-10-12T21:09:31.542Z,14.68
2022-10-12T21:11:58.522Z,15.52
2022-10-12T21:14:28.360Z,16.02
2022-10-12T21:16:55.351Z,17.00
2022-10-12T21:19:22.396Z,14.77
2022-10-12T21:21:49.367Z,15.93
2022-10-12T21:24:16.737Z,17.30
2022-10-12T21:26:43.785Z,16.42
2022-10-12T21:29:11.277Z,15.05
2022-10-12T21:31:38.264Z,17.17
2022-10-12T21:34:06.522Z,16.83
2022-10-12T21:36:36.161Z,16.02
2022-10-12T21:39:03.568Z,17.20
2022-10-12T21:41:31.185Z,16.50
2022-10-12T21:43:58.930Z,16.55
2022-10-12T21:46:27.386Z,16.70
2022-10-12T21:48:54.678Z,17.05
2022-10-12T21:51:22.368Z,17.70
2022-10-12T21:53:50.135Z,16.20
2022-10-12T21:56:24.255Z,16.27
2022-10-12T21:58:51.813Z,16.13
2022-10-12T22:01:19.931Z,15.00
2022-10-12T22:03:48.190Z,17.23
2022-10-12T22:06:16.535Z,16.23
2022-10-12T22:08:43.875Z,13.85
2022-10-12T22:11:11.660Z,15.05
2022-10-12T22:13:39.064Z,16.67
2022-10-12T22:16:07.952Z,15.23
2022-10-12T22:18:35.533Z,15.57
2022-10-12T22:21:03.696Z,14.55
2022-10-12T22:23:30.909Z,19.70
2022-10-12T22:26:02.176Z,18.58
2022-10-12T22:28:29.826Z,19.00
2022-10-12T22:30:57.159Z,17.48
2022-10-12T22:33:24.541Z,17.88
2022-10-12T22:35:55.135Z,17.70
2022-10-12T22:38:22.533Z,15.35
2022-10-12T22:41:00.337Z,14.23
2022-10-12T22:43:27.828Z,14.52
2022-10-12T22:45:55.310Z,13.85
2022-10-12T22:48:22.966Z,15.27
2022-10-12T22:50:50.290Z,14.85
2022-10-12T22:53:17.937Z,14.57
2022-10-12T22:55:45.427Z,15.05
2022-10-12T22:58:12.455Z,12.65
2022-10-12T23:00:39.668Z,14.75
2022-10-12T23:03:06.730Z,16.20
2022-10-12T23:05:33.725Z,16.45
2022-10-12T23:08:00.707Z,15.10
2022-10-12T23:10:27.751Z,16.63
2022-10-12T23:12:54.734Z,13.65
2022-10-12T23:15:21.815Z,14.20
2022-10-12T23:17:48.790Z,15.05
2022-10-12T23:20:15.871Z,14.30
2022-10-12T23:22:42.878Z,15.23
2022-10-12T23:25:09.864Z,14.95
2022-10-12T23:27:36.861Z,15.77
2022-10-12T23:30:04.015Z,14.27
2022-10-12T23:32:31.367Z,16.52
2022-10-12T23:34:58.409Z,15.70
2022-10-12T23:37:25.499Z,14.75
2022-10-12T23:39:52.486Z,14.68
2022-10-12T23:42:19.815Z,14.20
2022-10-12T23:44:47.175Z,15.30
2022-10-12T23:47:14.238Z,15.70
2022-10-12T23:49:41.344Z,15.55
2022-10-12T23:52:08.347Z,15.95
2022-10-12T23:54:35.341Z,15.15
2022-10-12T23:57:02.390Z,14.68
2022-10-12T23:59:29.481Z,15.40
